Monroe, North Carolina
Current Conditions -  °F | °C
As of 7:53 PM on Wednesday 22 Oct 2014 (Local Time) from KEQY Reporting Station
Clear Clear  
Wind Chill: 57°   Ceiling: Unl
Heat Index: 57°   Visibility: 10mi
Dew Point: 39°   Wind: 12mph
Humidity: 51%   Direction: 350°N
Pressure: 30.06"   Gusts: NA
Location:  34.98°N, 80.55°W
Report Text: KEQY 222353Z AUTO 35010KT 10SM CLR 14/04 A3006 RMK AO2 SLP189 T01390039 10194 20139 53013
Loading
Personal Weather Stations






























Interactive Weather Map New forecast layout! Learn more

10-Day Weather Forecast

Advertisements
Track Severe Weather on mobile